sensor_id;sensor_type;location;lat;lon;timestamp;pressure;altitude;pressure_sealevel;temperature
80246;BMP280;69558;39.208;-77.226;2023-07-20T00:02:21;100050.28;;;25.24
80246;BMP280;69558;39.208;-77.226;2023-07-20T00:04:47;100049.25;;;25.25
80246;BMP280;69558;39.208;-77.226;2023-07-20T00:07:13;100042.00;;;25.20
80246;BMP280;69558;39.208;-77.226;2023-07-20T00:09:40;100044.19;;;25.23
80246;BMP280;69558;39.208;-77.226;2023-07-20T00:12:06;100058.03;;;25.25
80246;BMP280;69558;39.208;-77.226;2023-07-20T00:14:33;100042.00;;;25.20
80246;BMP280;69558;39.208;-77.226;2023-07-20T00:16:59;100046.59;;;25.25
80246;BMP280;69558;39.208;-77.226;2023-07-20T00:19:26;100045.78;;;25.24
80246;BMP280;69558;39.208;-77.226;2023-07-20T00:21:52;100056.91;;;25.21
80246;BMP280;69558;39.208;-77.226;2023-07-20T00:24:20;100053.22;;;25.22
80246;BMP280;69558;39.208;-77.226;2023-07-20T00:26:46;100043.06;;;25.19
80246;BMP280;69558;39.208;-77.226;2023-07-20T00:29:12;100047.91;;;25.22
80246;BMP280;69558;39.208;-77.226;2023-07-20T00:31:39;100048.44;;;25.24
80246;BMP280;69558;39.208;-77.226;2023-07-20T00:34:05;100046.78;;;25.18
80246;BMP280;69558;39.208;-77.226;2023-07-20T00:36:32;100054.56;;;25.25
80246;BMP280;69558;39.208;-77.226;2023-07-20T00:38:58;100042.91;;;25.26
80246;BMP280;69558;39.208;-77.226;2023-07-20T00:41:23;100047.66;;;25.24
80246;BMP280;69558;39.208;-77.226;2023-07-20T00:43:50;100035.59;;;25.16
80246;BMP280;69558;39.208;-77.226;2023-07-20T00:46:17;100039.84;;;25.17
80246;BMP280;69558;39.208;-77.226;2023-07-20T00:48:43;100056.69;;;25.23
80246;BMP280;69558;39.208;-77.226;2023-07-20T00:51:09;100063.84;;;25.22
80246;BMP280;69558;39.208;-77.226;2023-07-20T00:53:36;100071.53;;;25.24
80246;BMP280;69558;39.208;-77.226;2023-07-20T00:56:02;100076.84;;;25.24
80246;BMP280;69558;39.208;-77.226;2023-07-20T00:58:29;100073.78;;;25.15
80246;BMP280;69558;39.208;-77.226;2023-07-20T01:00:55;100087.94;;;25.21
80246;BMP280;69558;39.208;-77.226;2023-07-20T01:03:21;100094.63;;;25.23
80246;BMP280;69558;39.208;-77.226;2023-07-20T01:08:37;100096.00;;;25.26
80246;BMP280;69558;39.208;-77.226;2023-07-20T01:11:48;100109.78;;;25.23
80246;BMP280;69558;39.208;-77.226;2023-07-20T01:14:21;100118.28;;;25.25
80246;BMP280;69558;39.208;-77.226;2023-07-20T01:16:47;100118.28;;;25.25
80246;BMP280;69558;39.208;-77.226;2023-07-20T01:19:16;100122.78;;;25.24
80246;BMP280;69558;39.208;-77.226;2023-07-20T01:21:53;100119.09;;;25.25
80246;BMP280;69558;39.208;-77.226;2023-07-20T01:24:38;100121.28;;;25.28
80246;BMP280;69558;39.208;-77.226;2023-07-20T01:28:15;100126.03;;;25.26
80246;BMP280;69558;39.208;-77.226;2023-07-20T01:30:23;100131.09;;;25.28
80246;BMP280;69558;39.208;-77.226;2023-07-20T01:32:54;100129.25;;;25.28
80246;BMP280;69558;39.208;-77.226;2023-07-20T01:35:29;100129.25;;;25.28
80246;BMP280;69558;39.208;-77.226;2023-07-20T01:37:56;100126.25;;;25.25
80246;BMP280;69558;39.208;-77.226;2023-07-20T01:40:24;100125.78;;;25.28
80246;BMP280;69558;39.208;-77.226;2023-07-20T01:42:51;100132.38;;;25.25
80246;BMP280;69558;39.208;-77.226;2023-07-20T01:45:18;100135.84;;;25.26
80246;BMP280;69558;39.208;-77.226;2023-07-20T01:47:45;100140.09;;;25.27
80246;BMP280;69558;39.208;-77.226;2023-07-20T01:50:12;100143.31;;;25.29
80246;BMP280;69558;39.208;-77.226;2023-07-20T01:52:38;100139.41;;;25.31
80246;BMP280;69558;39.208;-77.226;2023-07-20T01:55:05;100142.84;;;25.32
80246;BMP280;69558;39.208;-77.226;2023-07-20T01:57:31;100127.06;;;25.25
80246;BMP280;69558;39.208;-77.226;2023-07-20T01:59:57;100136.88;;;25.25
80246;BMP280;69558;39.208;-77.226;2023-07-20T02:02:26;100135.59;;;25.27
80246;BMP280;69558;39.208;-77.226;2023-07-20T02:04:56;100143.91;;;25.31
80246;BMP280;69558;39.208;-77.226;2023-07-20T02:07:21;100137.75;;;25.30
80246;BMP280;69558;39.208;-77.226;2023-07-20T02:09:47;100128.09;;;25.24
80246;BMP280;69558;39.208;-77.226;2023-07-20T02:12:13;100142.06;;;25.31
80246;BMP280;69558;39.208;-77.226;2023-07-20T02:14:39;100134.22;;;25.25
80246;BMP280;69558;39.208;-77.226;2023-07-20T02:17:05;100158.44;;;25.28
80246;BMP280;69558;39.208;-77.226;2023-07-20T02:19:31;100155.78;;;25.28
80246;BMP280;69558;39.208;-77.226;2023-07-20T02:21:57;100154.19;;;25.27
80246;BMP280;69558;39.208;-77.226;2023-07-20T02:24:23;100156.59;;;25.29
80246;BMP280;69558;39.208;-77.226;2023-07-20T02:26:51;100155.78;;;25.28
80246;BMP280;69558;39.208;-77.226;2023-07-20T02:29:17;100152.34;;;25.28
80246;BMP280;69558;39.208;-77.226;2023-07-20T02:31:43;100154.53;;;25.31
80246;BMP280;69558;39.208;-77.226;2023-07-20T02:34:09;100148.72;;;25.34
80246;BMP280;69558;39.208;-77.226;2023-07-20T02:36:36;100147.03;;;25.28
80246;BMP280;69558;39.208;-77.226;2023-07-20T02:39:02;100157.47;;;25.34
80246;BMP280;69558;39.208;-77.226;2023-07-20T02:41:33;100150.31;;;25.35
80246;BMP280;69558;39.208;-77.226;2023-07-20T02:43:59;100156.66;;;25.34
80246;BMP280;69558;39.208;-77.226;2023-07-20T02:46:27;100150.25;;;25.30
80246;BMP280;69558;39.208;-77.226;2023-07-20T02:48:55;100152.66;;;25.31
80246;BMP280;69558;39.208;-77.226;2023-07-20T02:51:21;100150.00;;;25.31
80246;BMP280;69558;39.208;-77.226;2023-07-20T02:53:47;100157.75;;;25.33
80246;BMP280;69558;39.208;-77.226;2023-07-20T02:56:13;100154.19;;;25.27
80246;BMP280;69558;39.208;-77.226;2023-07-20T02:58:41;100159.31;;;25.34
80246;BMP280;69558;39.208;-77.226;2023-07-20T03:01:12;100160.63;;;25.31
80246;BMP280;69558;39.208;-77.226;2023-07-20T03:03:38;100163.28;;;25.31
80246;BMP280;69558;39.208;-77.226;2023-07-20T03:06:05;100175.03;;;25.35
80246;BMP280;69558;39.208;-77.226;2023-07-20T03:08:31;100174.03;;;25.37
80246;BMP280;69558;39.208;-77.226;2023-07-20T03:10:57;100169.72;;;25.35
80246;BMP280;69558;39.208;-77.226;2023-07-20T03:13:23;100165.72;;;25.33
80246;BMP280;69558;39.208;-77.226;2023-07-20T03:15:51;100166.19;;;25.30
80246;BMP280;69558;39.208;-77.226;2023-07-20T03:18:17;100162.72;;;25.29
80246;BMP280;69558;39.208;-77.226;2023-07-20T03:20:43;100176.56;;;25.31
80246;BMP280;69558;39.208;-77.226;2023-07-20T03:23:10;100170.75;;;25.34
80246;BMP280;69558;39.208;-77.226;2023-07-20T03:25:37;100168.91;;;25.35
80246;BMP280;69558;39.208;-77.226;2023-07-20T03:28:03;100167.28;;;25.34
80246;BMP280;69558;39.208;-77.226;2023-07-20T03:30:29;100180.56;;;25.34
80246;BMP280;69558;39.208;-77.226;2023-07-20T03:32:56;100184.31;;;25.33
80246;BMP280;69558;39.208;-77.226;2023-07-20T03:35:22;100182.69;;;25.32
80246;BMP280;69558;39.208;-77.226;2023-07-20T03:37:48;100188.00;;;25.32
80246;BMP280;69558;39.208;-77.226;2023-07-20T03:40:15;100193.06;;;25.33
80246;BMP280;69558;39.208;-77.226;2023-07-20T03:42:41;100178.19;;;25.32
80246;BMP280;69558;39.208;-77.226;2023-07-20T03:45:08;100177.38;;;25.32
80246;BMP280;69558;39.208;-77.226;2023-07-20T03:47:35;100186.16;;;25.32
80246;BMP280;69558;39.208;-77.226;2023-07-20T03:50:00;100185.34;;;25.32
80246;BMP280;69558;39.208;-77.226;2023-07-20T03:52:26;100195.72;;;25.33
80246;BMP280;69558;39.208;-77.226;2023-07-20T03:54:53;100182.81;;;25.25
80246;BMP280;69558;39.208;-77.226;2023-07-20T03:57:20;100189.63;;;25.33
80246;BMP280;69558;39.208;-77.226;2023-07-20T03:59:46;100187.41;;;25.30
80246;BMP280;69558;39.208;-77.226;2023-07-20T04:02:12;100201.03;;;25.33
80246;BMP280;69558;39.208;-77.226;2023-07-20T04:04:38;100200.22;;;25.33
80246;BMP280;69558;39.208;-77.226;2023-07-20T04:07:04;100197.09;;;25.36
80246;BMP280;69558;39.208;-77.226;2023-07-20T04:09:31;100191.88;;;25.41
80246;BMP280;69558;39.208;-77.226;2023-07-20T04:11:57;100191.53;;;25.38
80246;BMP280;69558;39.208;-77.226;2023-07-20T04:14:24;100188.31;;;25.35
80246;BMP280;69558;39.208;-77.226;2023-07-20T04:16:51;100191.47;;;25.32
80246;BMP280;69558;39.208;-77.226;2023-07-20T04:19:22;100182.56;;;25.27
80246;BMP280;69558;39.208;-77.226;2023-07-20T04:21:49;100176.69;;;25.25
80246;BMP280;69558;39.208;-77.226;2023-07-20T04:24:14;100176.63;;;25.20
80246;BMP280;69558;39.208;-77.226;2023-07-20T04:26:41;100187.81;;;25.22
80246;BMP280;69558;39.208;-77.226;2023-07-20T04:29:07;100186.16;;;25.21
80246;BMP280;69558;39.208;-77.226;2023-07-20T04:31:33;100181.13;;;25.19
80246;BMP280;69558;39.208;-77.226;2023-07-20T04:33:59;100174.75;;;25.20
80246;BMP280;69558;39.208;-77.226;2023-07-20T04:36:25;100187.66;;;25.28
80246;BMP280;69558;39.208;-77.226;2023-07-20T04:38:52;100191.00;;;25.24
80246;BMP280;69558;39.208;-77.226;2023-07-20T04:41:18;100205.78;;;25.31
80246;BMP280;69558;39.208;-77.226;2023-07-20T04:43:46;100204.13;;;25.30
80246;BMP280;69558;39.208;-77.226;2023-07-20T04:46:13;100188.69;;;25.27
80246;BMP280;69558;39.208;-77.226;2023-07-20T04:48:39;100201.34;;;25.37
80246;BMP280;69558;39.208;-77.226;2023-07-20T04:51:06;100199.16;;;25.34
80246;BMP280;69558;39.208;-77.226;2023-07-20T04:53:32;100195.25;;;25.37
80246;BMP280;69558;39.208;-77.226;2023-07-20T04:55:58;100202.97;;;25.38
80246;BMP280;69558;39.208;-77.226;2023-07-20T04:58:24;100188.19;;;25.30
80246;BMP280;69558;39.208;-77.226;2023-07-20T05:00:51;100192.81;;;25.35
80246;BMP280;69558;39.208;-77.226;2023-07-20T05:03:17;100191.31;;;25.39
80246;BMP280;69558;39.208;-77.226;2023-07-20T05:05:43;100198.47;;;25.39
80246;BMP280;69558;39.208;-77.226;2023-07-20T05:08:09;100192.91;;;25.40
80246;BMP280;69558;39.208;-77.226;2023-07-20T05:10:37;100187.59;;;25.40
80246;BMP280;69558;39.208;-77.226;2023-07-20T05:13:02;100188.66;;;25.39
80246;BMP280;69558;39.208;-77.226;2023-07-20T05:15:29;100186.00;;;25.39
80246;BMP280;69558;39.208;-77.226;2023-07-20T05:17:56;100186.50;;;25.36
80246;BMP280;69558;39.208;-77.226;2023-07-20T05:20:22;100185.75;;;25.41
80246;BMP280;69558;39.208;-77.226;2023-07-20T05:22:49;100179.31;;;25.37
80246;BMP280;69558;39.208;-77.226;2023-07-20T05:25:14;100183.00;;;25.35
80246;BMP280;69558;39.208;-77.226;2023-07-20T05:27:44;100183.56;;;25.38
80246;BMP280;69558;39.208;-77.226;2023-07-20T05:30:12;100184.38;;;25.38
80246;BMP280;69558;39.208;-77.226;2023-07-20T05:32:38;100189.63;;;25.33
80246;BMP280;69558;39.208;-77.226;2023-07-20T05:35:05;100193.16;;;25.39
80246;BMP280;69558;39.208;-77.226;2023-07-20T05:37:31;100202.72;;;25.40
80246;BMP280;69558;39.208;-77.226;2023-07-20T05:39:57;100207.56;;;25.43
80246;BMP280;69558;39.208;-77.226;2023-07-20T05:42:23;100210.47;;;25.41
80246;BMP280;69558;39.208;-77.226;2023-07-20T05:44:49;100213.13;;;25.41
80246;BMP280;69558;39.208;-77.226;2023-07-20T05:47:18;100205.38;;;25.40
80246;BMP280;69558;39.208;-77.226;2023-07-20T05:49:44;100208.38;;;25.43
80246;BMP280;69558;39.208;-77.226;2023-07-20T05:52:10;100208.84;;;25.40
80246;BMP280;69558;39.208;-77.226;2023-07-20T05:54:35;100193.06;;;25.33
80246;BMP280;69558;39.208;-77.226;2023-07-20T05:57:02;100195.25;;;25.37
80246;BMP280;69558;39.208;-77.226;2023-07-20T05:59:27;100192.34;;;25.38
80246;BMP280;69558;39.208;-77.226;2023-07-20T06:01:55;100189.69;;;25.38
80246;BMP280;69558;39.208;-77.226;2023-07-20T06:04:21;100196.84;;;25.38
80246;BMP280;69558;39.208;-77.226;2023-07-20T06:06:47;100204.00;;;25.37
80246;BMP280;69558;39.208;-77.226;2023-07-20T06:09:13;100188.66;;;25.39
80246;BMP280;69558;39.208;-77.226;2023-07-20T06:11:39;100184.63;;;25.37
80246;BMP280;69558;39.208;-77.226;2023-07-20T06:14:05;100169.63;;;25.30
80246;BMP280;69558;39.208;-77.226;2023-07-20T06:16:32;100188.41;;;25.41
80246;BMP280;69558;39.208;-77.226;2023-07-20T06:19:00;100183.91;;;25.41
80246;BMP280;69558;39.208;-77.226;2023-07-20T06:21:26;100182.06;;;25.42
80246;BMP280;69558;39.208;-77.226;2023-07-20T06:23:52;100185.28;;;25.44
80246;BMP280;69558;39.208;-77.226;2023-07-20T06:26:18;100181.03;;;25.43
80246;BMP280;69558;39.208;-77.226;2023-07-20T06:28:46;100184.94;;;25.40
80246;BMP280;69558;39.208;-77.226;2023-07-20T06:31:12;100189.78;;;25.43
80246;BMP280;69558;39.208;-77.226;2023-07-20T06:33:37;100182.88;;;25.42
80246;BMP280;69558;39.208;-77.226;2023-07-20T06:36:04;100169.34;;;25.44
80246;BMP280;69558;39.208;-77.226;2023-07-20T06:38:29;100162.44;;;25.43
80246;BMP280;69558;39.208;-77.226;2023-07-20T06:40:55;100165.88;;;25.43
80246;BMP280;69558;39.208;-77.226;2023-07-20T06:43:21;100152.34;;;25.45
80246;BMP280;69558;39.208;-77.226;2023-07-20T06:45:54;100153.66;;;25.42
80246;BMP280;69558;39.208;-77.226;2023-07-20T06:48:21;100147.31;;;25.43
80246;BMP280;69558;39.208;-77.226;2023-07-20T06:50:48;100140.59;;;25.41
80246;BMP280;69558;39.208;-77.226;2023-07-20T06:53:13;100147.31;;;25.43
80246;BMP280;69558;39.208;-77.226;2023-07-20T06:55:41;100147.84;;;25.45
80246;BMP280;69558;39.208;-77.226;2023-07-20T06:58:07;100142.69;;;25.39
80246;BMP280;69558;39.208;-77.226;2023-07-20T07:00:33;100143.03;;;25.42
80246;BMP280;69558;39.208;-77.226;2023-07-20T07:03:00;100143.38;;;25.46
80246;BMP280;69558;39.208;-77.226;2023-07-20T07:05:26;100142.78;;;25.44
80246;BMP280;69558;39.208;-77.226;2023-07-20T07:07:53;100148.88;;;25.44
80246;BMP280;69558;39.208;-77.226;2023-07-20T07:10:18;100140.38;;;25.42
80246;BMP280;69558;39.208;-77.226;2023-07-20T07:12:46;100136.69;;;25.43
80246;BMP280;69558;39.208;-77.226;2023-07-20T07:15:13;100121.22;;;25.40
80246;BMP280;69558;39.208;-77.226;2023-07-20T07:17:38;100127.09;;;25.42
80246;BMP280;69558;39.208;-77.226;2023-07-20T07:20:06;100122.25;;;25.39
80246;BMP280;69558;39.208;-77.226;2023-07-20T07:22:33;100118.78;;;25.39
80246;BMP280;69558;39.208;-77.226;2023-07-20T07:25:00;100118.31;;;25.42
80246;BMP280;69558;39.208;-77.226;2023-07-20T07:27:26;100116.47;;;25.42
80246;BMP280;69558;39.208;-77.226;2023-07-20T07:29:51;100115.09;;;25.40
80246;BMP280;69558;39.208;-77.226;2023-07-20T07:32:17;100116.72;;;25.41
80246;BMP280;69558;39.208;-77.226;2023-07-20T07:34:44;100103.44;;;25.41
80246;BMP280;69558;39.208;-77.226;2023-07-20T07:37:12;100111.41;;;25.41
80246;BMP280;69558;39.208;-77.226;2023-07-20T07:39:39;100103.44;;;25.41
80246;BMP280;69558;39.208;-77.226;2023-07-20T07:42:05;100111.97;;;25.43
80246;BMP280;69558;39.208;-77.226;2023-07-20T07:44:32;100107.94;;;25.40
80246;BMP280;69558;39.208;-77.226;2023-07-20T07:46:58;100105.50;;;25.39
80246;BMP280;69558;39.208;-77.226;2023-07-20T07:49:24;100101.81;;;25.40
80246;BMP280;69558;39.208;-77.226;2023-07-20T07:51:50;100101.34;;;25.43
80246;BMP280;69558;39.208;-77.226;2023-07-20T07:54:16;100094.09;;;25.38
80246;BMP280;69558;39.208;-77.226;2023-07-20T07:56:42;100090.91;;;25.36
80246;BMP280;69558;39.208;-77.226;2023-07-20T07:59:09;100109.31;;;25.43
80246;BMP280;69558;39.208;-77.226;2023-07-20T08:01:36;100103.19;;;25.42
80246;BMP280;69558;39.208;-77.226;2023-07-20T08:04:02;100107.69;;;25.42
80246;BMP280;69558;39.208;-77.226;2023-07-20T08:06:29;100099.88;;;25.35
80246;BMP280;69558;39.208;-77.226;2023-07-20T08:08:57;100104.63;;;25.33
80246;BMP280;69558;39.208;-77.226;2023-07-20T08:11:24;100106.91;;;25.41
80246;BMP280;69558;39.208;-77.226;2023-07-20T08:13:50;100108.97;;;25.39
80246;BMP280;69558;39.208;-77.226;2023-07-20T08:16:16;100105.28;;;25.40
80246;BMP280;69558;39.208;-77.226;2023-07-20T08:18:43;100096.41;;;25.34
80246;BMP280;69558;39.208;-77.226;2023-07-20T08:21:10;100104.81;;;25.43
80246;BMP280;69558;39.208;-77.226;2023-07-20T08:23:37;100112.19;;;25.41
80246;BMP280;69558;39.208;-77.226;2023-07-20T08:26:04;100122.59;;;25.43
80246;BMP280;69558;39.208;-77.226;2023-07-20T08:28:30;100100.91;;;25.34
80246;BMP280;69558;39.208;-77.226;2023-07-20T08:30:56;100120.97;;;25.42
80246;BMP280;69558;39.208;-77.226;2023-07-20T08:33:22;100102.78;;;25.33
80246;BMP280;69558;39.208;-77.226;2023-07-20T08:35:50;100103.22;;;25.30
80246;BMP280;69558;39.208;-77.226;2023-07-20T08:38:16;100114.53;;;25.38
80246;BMP280;69558;39.208;-77.226;2023-07-20T08:40:46;100089.31;;;25.23
80246;BMP280;69558;39.208;-77.226;2023-07-20T08:43:13;100121.44;;;25.39
80246;BMP280;69558;39.208;-77.226;2023-07-20T08:45:40;100112.69;;;25.38
80246;BMP280;69558;39.208;-77.226;2023-07-20T08:48:08;100095.44;;;25.24
80246;BMP280;69558;39.208;-77.226;2023-07-20T08:50:36;100121.44;;;25.39
80246;BMP280;69558;39.208;-77.226;2023-07-20T08:53:02;100124.34;;;25.37
80246;BMP280;69558;39.208;-77.226;2023-07-20T08:55:29;100119.84;;;25.38
80246;BMP280;69558;39.208;-77.226;2023-07-20T08:57:58;100117.44;;;25.36
80246;BMP280;69558;39.208;-77.226;2023-07-20T09:00:26;100125.94;;;25.38
80246;BMP280;69558;39.208;-77.226;2023-07-20T09:02:56;100121.91;;;25.35
80246;BMP280;69558;39.208;-77.226;2023-07-20T09:05:24;100123.28;;;25.38
80246;BMP280;69558;39.208;-77.226;2023-07-20T09:07:52;100109.94;;;25.33
80246;BMP280;69558;39.208;-77.226;2023-07-20T09:10:21;100113.16;;;25.35
80246;BMP280;69558;39.208;-77.226;2023-07-20T09:12:48;100095.75;;;25.27
80246;BMP280;69558;39.208;-77.226;2023-07-20T09:15:14;100109.38;;;25.31
80246;BMP280;69558;39.208;-77.226;2023-07-20T09:17:48;100117.19;;;25.38
80246;BMP280;69558;39.208;-77.226;2023-07-20T09:20:17;100128.06;;;25.36
80246;BMP280;69558;39.208;-77.226;2023-07-20T09:22:44;100117.66;;;25.34
80246;BMP280;69558;39.208;-77.226;2023-07-20T09:25:18;100112.69;;;25.38
80246;BMP280;69558;39.208;-77.226;2023-07-20T09:27:48;100115.50;;;25.31
80246;BMP280;69558;39.208;-77.226;2023-07-20T09:30:16;100117.59;;;25.29
80246;BMP280;69558;39.208;-77.226;2023-07-20T09:32:43;100131.72;;;25.35
80246;BMP280;69558;39.208;-77.226;2023-07-20T09:35:13;100110.25;;;25.20
80246;BMP280;69558;39.208;-77.226;2023-07-20T09:37:55;100140.50;;;25.35
80246;BMP280;69558;39.208;-77.226;2023-07-20T09:40:24;100137.22;;;25.28
80246;BMP280;69558;39.208;-77.226;2023-07-20T09:42:52;100145.28;;;25.33
80246;BMP280;69558;39.208;-77.226;2023-07-20T09:45:29;100146.06;;;25.34
80246;BMP280;69558;39.208;-77.226;2023-07-20T09:48:06;100166.06;;;25.37
80246;BMP280;69558;39.208;-77.226;2023-07-20T09:50:49;100170.56;;;25.36
80246;BMP280;69558;39.208;-77.226;2023-07-20T09:53:20;100172.88;;;25.32
80246;BMP280;69558;39.208;-77.226;2023-07-20T09:55:48;100185.09;;;25.33
80246;BMP280;69558;39.208;-77.226;2023-07-20T09:58:14;100188.81;;;25.32
80246;BMP280;69558;39.208;-77.226;2023-07-20T10:00:43;100169.22;;;25.22
80246;BMP280;69558;39.208;-77.226;2023-07-20T10:03:18;100182.44;;;25.33
80246;BMP280;69558;39.208;-77.226;2023-07-20T10:05:52;100185.88;;;25.34
80246;BMP280;69558;39.208;-77.226;2023-07-20T10:08:25;100186.97;;;25.33
80246;BMP280;69558;39.208;-77.226;2023-07-20T10:10:51;100199.16;;;25.34
80246;BMP280;69558;39.208;-77.226;2023-07-20T10:13:21;100193.31;;;25.32
80246;BMP280;69558;39.208;-77.226;2023-07-20T10:15:54;100207.94;;;25.34
80246;BMP280;69558;39.208;-77.226;2023-07-20T10:18:33;100193.19;;;25.27
80246;BMP280;69558;39.208;-77.226;2023-07-20T10:21:01;100197.56;;;25.33
80246;BMP280;69558;39.208;-77.226;2023-07-20T10:23:32;100194.91;;;25.33
80246;BMP280;69558;39.208;-77.226;2023-07-20T10:25:59;100193.31;;;25.32
80246;BMP280;69558;39.208;-77.226;2023-07-20T10:28:26;100185.00;;;25.28
80246;BMP280;69558;39.208;-77.226;2023-07-20T10:30:52;100174.75;;;25.20
80246;BMP280;69558;39.208;-77.226;2023-07-20T10:33:21;100184.31;;;25.33
80246;BMP280;69558;39.208;-77.226;2023-07-20T10:35:56;100191.19;;;25.34
80246;BMP280;69558;39.208;-77.226;2023-07-20T10:38:41;100180.97;;;25.26
80246;BMP280;69558;39.208;-77.226;2023-07-20T10:41:22;100194.66;;;25.34
80246;BMP280;69558;39.208;-77.226;2023-07-20T10:43:51;100202.31;;;25.31
80246;BMP280;69558;39.208;-77.226;2023-07-20T10:49:06;100203.13;;;25.31
80246;BMP280;69558;39.208;-77.226;2023-07-20T10:51:46;100204.63;;;25.27
80246;BMP280;69558;39.208;-77.226;2023-07-20T10:56:45;100208.44;;;25.31
80246;BMP280;69558;39.208;-77.226;2023-07-20T11:01:59;100199.44;;;25.32
80246;BMP280;69558;39.208;-77.226;2023-07-20T11:04:39;100196.50;;;25.34
80246;BMP280;69558;39.208;-77.226;2023-07-20T11:07:05;100214.56;;;25.32
80246;BMP280;69558;39.208;-77.226;2023-07-20T11:09:36;100206.00;;;25.30
80246;BMP280;69558;39.208;-77.226;2023-07-20T11:12:14;100212.94;;;25.31
80246;BMP280;69558;39.208;-77.226;2023-07-20T11:17:14;100223.22;;;25.27
80246;BMP280;69558;39.208;-77.226;2023-07-20T11:19:40;100219.75;;;25.27
80246;BMP280;69558;39.208;-77.226;2023-07-20T11:22:07;100229.91;;;25.30
80246;BMP280;69558;39.208;-77.226;2023-07-20T11:24:34;100218.97;;;25.26
80246;BMP280;69558;39.208;-77.226;2023-07-20T11:27:04;100224.84;;;25.28
80246;BMP280;69558;39.208;-77.226;2023-07-20T11:29:30;100221.94;;;25.30
80246;BMP280;69558;39.208;-77.226;2023-07-20T11:31:56;100204.53;;;25.22
80246;BMP280;69558;39.208;-77.226;2023-07-20T11:34:24;100215.00;;;25.29
80246;BMP280;69558;39.208;-77.226;2023-07-20T11:36:51;100215.00;;;25.29
80246;BMP280;69558;39.208;-77.226;2023-07-20T11:39:19;100216.44;;;25.20
80246;BMP280;69558;39.208;-77.226;2023-07-20T11:41:52;100239.72;;;25.29
80246;BMP280;69558;39.208;-77.226;2023-07-20T11:44:21;100209.16;;;25.15
80246;BMP280;69558;39.208;-77.226;2023-07-20T11:47:10;100219.41;;;25.23
80246;BMP280;69558;39.208;-77.226;2023-07-20T11:49:39;100225.06;;;25.27
80246;BMP280;69558;39.208;-77.226;2023-07-20T11:52:11;100225.16;;;25.32
80246;BMP280;69558;39.208;-77.226;2023-07-20T11:54:39;100215.38;;;25.21
80246;BMP280;69558;39.208;-77.226;2023-07-20T11:57:06;100241.56;;;25.29
80246;BMP280;69558;39.208;-77.226;2023-07-20T11:59:32;100233.59;;;25.29
80246;BMP280;69558;39.208;-77.226;2023-07-20T12:02:02;100234.66;;;25.28
80246;BMP280;69558;39.208;-77.226;2023-07-20T12:04:32;100238.09;;;25.28
80246;BMP280;69558;39.208;-77.226;2023-07-20T12:06:58;100238.44;;;25.32
80246;BMP280;69558;39.208;-77.226;2023-07-20T12:09:25;100233.84;;;25.27
80246;BMP280;69558;39.208;-77.226;2023-07-20T12:11:51;100231.41;;;25.26
80246;BMP280;69558;39.208;-77.226;2023-07-20T12:14:17;100239.16;;;25.27
80246;BMP280;69558;39.208;-77.226;2023-07-20T12:16:43;100240.22;;;25.26
80246;BMP280;69558;39.208;-77.226;2023-07-20T12:19:11;100234.91;;;25.26
80246;BMP280;69558;39.208;-77.226;2023-07-20T12:21:39;100234.56;;;25.23
80246;BMP280;69558;39.208;-77.226;2023-07-20T12:24:07;100219.22;;;25.13
80246;BMP280;69558;39.208;-77.226;2023-07-20T12:26:37;100227.53;;;25.17
80246;BMP280;69558;39.208;-77.226;2023-07-20T12:29:05;100232.13;;;25.21
80246;BMP280;69558;39.208;-77.226;2023-07-20T12:31:36;100216.69;;;25.07
80246;BMP280;69558;39.208;-77.226;2023-07-20T12:34:02;100229.94;;;25.18
80246;BMP280;69558;39.208;-77.226;2023-07-20T12:36:29;100217.94;;;25.16
80246;BMP280;69558;39.208;-77.226;2023-07-20T12:38:56;100222.53;;;25.20
80246;BMP280;69558;39.208;-77.226;2023-07-20T12:41:22;100229.00;;;25.24
80246;BMP280;69558;39.208;-77.226;2023-07-20T12:43:49;100229.78;;;25.25
80246;BMP280;69558;39.208;-77.226;2023-07-20T12:46:16;100210.78;;;25.16
80246;BMP280;69558;39.208;-77.226;2023-07-20T12:48:42;100231.91;;;25.23
80246;BMP280;69558;39.208;-77.226;2023-07-20T12:51:09;100219.66;;;25.22
80246;BMP280;69558;39.208;-77.226;2023-07-20T12:53:36;100208.72;;;25.18
80246;BMP280;69558;39.208;-77.226;2023-07-20T12:56:02;100219.75;;;25.27
80246;BMP280;69558;39.208;-77.226;2023-07-20T12:58:28;100214.44;;;25.27
80246;BMP280;69558;39.208;-77.226;2023-07-20T13:00:54;100213.97;;;25.30
80246;BMP280;69558;39.208;-77.226;2023-07-20T13:03:22;100208.56;;;25.25
80246;BMP280;69558;39.208;-77.226;2023-07-20T13:05:50;100212.59;;;25.27
80246;BMP280;69558;39.208;-77.226;2023-07-20T13:08:25;100199.69;;;25.19
80246;BMP280;69558;39.208;-77.226;2023-07-20T13:11:02;100207.50;;;25.26
80246;BMP280;69558;39.208;-77.226;2023-07-20T13:13:30;100205.91;;;25.25
80246;BMP280;69558;39.208;-77.226;2023-07-20T13:15:56;100201.63;;;25.24
80246;BMP280;69558;39.208;-77.226;2023-07-20T13:18:22;100194.13;;;25.21
80246;BMP280;69558;39.208;-77.226;2023-07-20T13:20:48;100178.34;;;25.14
80246;BMP280;69558;39.208;-77.226;2023-07-20T13:23:14;100200.81;;;25.23
80246;BMP280;69558;39.208;-77.226;2023-07-20T13:25:40;100207.28;;;25.27
80246;BMP280;69558;39.208;-77.226;2023-07-20T13:28:08;100206.72;;;25.25
80246;BMP280;69558;39.208;-77.226;2023-07-20T13:30:34;100201.16;;;25.27
80246;BMP280;69558;39.208;-77.226;2023-07-20T13:33:00;100199.09;;;25.29
80246;BMP280;69558;39.208;-77.226;2023-07-20T13:35:26;100197.47;;;25.28
80246;BMP280;69558;39.208;-77.226;2023-07-20T13:37:52;100192.72;;;25.30
80246;BMP280;69558;39.208;-77.226;2023-07-20T13:40:17;100176.00;;;25.29
80246;BMP280;69558;39.208;-77.226;2023-07-20T13:42:46;100176.56;;;25.31
80246;BMP280;69558;39.208;-77.226;2023-07-20T13:45:12;100170.69;;;25.29
80246;BMP280;69558;39.208;-77.226;2023-07-20T13:47:38;100146.03;;;25.17
80246;BMP280;69558;39.208;-77.226;2023-07-20T13:50:05;100175.19;;;25.29